sensor_id;sensor_type;location;lat;lon;timestamp;P1;durP1;ratioP1;P2;durP2;ratioP2
3916;SDS011;1973;50.518;7.318;2024-01-30T00:00:45;13.23;;;9.77;;
3916;SDS011;1973;50.518;7.318;2024-01-30T00:03:11;12.27;;;8.63;;
3916;SDS011;1973;50.518;7.318;2024-01-30T00:05:38;15.60;;;9.57;;
3916;SDS011;1973;50.518;7.318;2024-01-30T00:08:05;12.93;;;9.80;;
3916;SDS011;1973;50.518;7.318;2024-01-30T00:10:32;16.67;;;10.70;;
3916;SDS011;1973;50.518;7.318;2024-01-30T00:12:58;18.93;;;10.80;;
3916;SDS011;1973;50.518;7.318;2024-01-30T00:15:25;15.63;;;10.90;;
3916;SDS011;1973;50.518;7.318;2024-01-30T00:17:52;15.00;;;11.10;;
3916;SDS011;1973;50.518;7.318;2024-01-30T00:20:20;13.37;;;10.83;;
3916;SDS011;1973;50.518;7.318;2024-01-30T00:22:47;11.57;;;9.47;;
3916;SDS011;1973;50.518;7.318;2024-01-30T00:25:13;15.40;;;9.90;;
3916;SDS011;1973;50.518;7.318;2024-01-30T00:27:40;12.73;;;10.03;;
3916;SDS011;1973;50.518;7.318;2024-01-30T00:30:07;14.47;;;9.20;;
3916;SDS011;1973;50.518;7.318;2024-01-30T00:32:35;13.83;;;9.00;;
3916;SDS011;1973;50.518;7.318;2024-01-30T00:35:01;11.43;;;8.43;;
3916;SDS011;1973;50.518;7.318;2024-01-30T00:37:28;11.70;;;10.40;;
3916;SDS011;1973;50.518;7.318;2024-01-30T00:39:55;13.27;;;9.83;;
3916;SDS011;1973;50.518;7.318;2024-01-30T00:42:22;20.03;;;12.50;;
3916;SDS011;1973;50.518;7.318;2024-01-30T00:44:50;16.17;;;11.30;;
3916;SDS011;1973;50.518;7.318;2024-01-30T00:47:17;12.70;;;10.17;;
3916;SDS011;1973;50.518;7.318;2024-01-30T00:49:43;12.83;;;10.10;;
3916;SDS011;1973;50.518;7.318;2024-01-30T00:52:10;14.00;;;10.37;;
3916;SDS011;1973;50.518;7.318;2024-01-30T00:54:37;11.53;;;8.80;;
3916;SDS011;1973;50.518;7.318;2024-01-30T00:57:03;16.87;;;9.40;;
3916;SDS011;1973;50.518;7.318;2024-01-30T00:59:30;15.07;;;8.90;;
3916;SDS011;1973;50.518;7.318;2024-01-30T01:01:57;12.90;;;10.33;;
3916;SDS011;1973;50.518;7.318;2024-01-30T01:04:24;11.93;;;9.87;;
3916;SDS011;1973;50.518;7.318;2024-01-30T01:06:50;11.70;;;9.33;;
3916;SDS011;1973;50.518;7.318;2024-01-30T01:09:17;13.40;;;10.20;;
3916;SDS011;1973;50.518;7.318;2024-01-30T01:11:44;10.37;;;8.70;;
3916;SDS011;1973;50.518;7.318;2024-01-30T01:14:10;10.60;;;9.20;;
3916;SDS011;1973;50.518;7.318;2024-01-30T01:16:36;9.93;;;8.90;;
3916;SDS011;1973;50.518;7.318;2024-01-30T01:19:03;10.60;;;8.20;;
3916;SDS011;1973;50.518;7.318;2024-01-30T01:21:31;12.40;;;9.07;;
3916;SDS011;1973;50.518;7.318;2024-01-30T01:23:57;11.47;;;9.63;;
3916;SDS011;1973;50.518;7.318;2024-01-30T01:26:24;11.87;;;9.50;;
3916;SDS011;1973;50.518;7.318;2024-01-30T01:28:50;12.17;;;9.00;;
3916;SDS011;1973;50.518;7.318;2024-01-30T01:31:17;12.50;;;9.30;;
3916;SDS011;1973;50.518;7.318;2024-01-30T01:33:44;12.07;;;8.23;;
3916;SDS011;1973;50.518;7.318;2024-01-30T01:36:12;13.47;;;10.43;;
3916;SDS011;1973;50.518;7.318;2024-01-30T01:38:39;11.00;;;9.07;;
3916;SDS011;1973;50.518;7.318;2024-01-30T01:41:06;12.37;;;10.23;;
3916;SDS011;1973;50.518;7.318;2024-01-30T01:43:33;11.17;;;9.20;;
3916;SDS011;1973;50.518;7.318;2024-01-30T01:45:59;12.03;;;9.90;;
3916;SDS011;1973;50.518;7.318;2024-01-30T01:48:27;9.47;;;8.27;;
3916;SDS011;1973;50.518;7.318;2024-01-30T01:50:55;13.10;;;10.37;;
3916;SDS011;1973;50.518;7.318;2024-01-30T01:53:22;11.53;;;9.80;;
3916;SDS011;1973;50.518;7.318;2024-01-30T01:55:49;11.83;;;9.10;;
3916;SDS011;1973;50.518;7.318;2024-01-30T01:58:19;12.00;;;8.93;;
3916;SDS011;1973;50.518;7.318;2024-01-30T02:00:47;10.20;;;8.10;;
3916;SDS011;1973;50.518;7.318;2024-01-30T02:03:14;10.87;;;8.47;;
3916;SDS011;1973;50.518;7.318;2024-01-30T02:05:44;11.80;;;8.83;;
3916;SDS011;1973;50.518;7.318;2024-01-30T02:08:11;9.57;;;7.57;;
3916;SDS011;1973;50.518;7.318;2024-01-30T02:10:39;10.23;;;8.30;;
3916;SDS011;1973;50.518;7.318;2024-01-30T02:13:06;12.43;;;9.00;;
3916;SDS011;1973;50.518;7.318;2024-01-30T02:15:32;12.23;;;7.90;;
3916;SDS011;1973;50.518;7.318;2024-01-30T02:17:59;12.90;;;8.47;;
3916;SDS011;1973;50.518;7.318;2024-01-30T02:20:26;10.80;;;8.97;;
3916;SDS011;1973;50.518;7.318;2024-01-30T02:22:56;15.37;;;10.00;;
3916;SDS011;1973;50.518;7.318;2024-01-30T02:25:31;13.20;;;8.77;;
3916;SDS011;1973;50.518;7.318;2024-01-30T02:28:03;9.67;;;8.43;;
3916;SDS011;1973;50.518;7.318;2024-01-30T02:30:30;10.97;;;8.40;;
3916;SDS011;1973;50.518;7.318;2024-01-30T02:32:56;12.37;;;9.27;;
3916;SDS011;1973;50.518;7.318;2024-01-30T02:35:23;9.00;;;7.93;;
3916;SDS011;1973;50.518;7.318;2024-01-30T02:37:49;12.33;;;8.73;;
3916;SDS011;1973;50.518;7.318;2024-01-30T02:40:16;9.30;;;7.73;;
3916;SDS011;1973;50.518;7.318;2024-01-30T02:42:42;12.33;;;9.10;;
3916;SDS011;1973;50.518;7.318;2024-01-30T02:45:10;10.40;;;8.30;;
3916;SDS011;1973;50.518;7.318;2024-01-30T02:47:37;9.43;;;7.70;;
3916;SDS011;1973;50.518;7.318;2024-01-30T02:50:04;13.97;;;9.67;;
3916;SDS011;1973;50.518;7.318;2024-01-30T02:52:32;9.93;;;8.20;;
3916;SDS011;1973;50.518;7.318;2024-01-30T02:54:58;9.83;;;7.67;;
3916;SDS011;1973;50.518;7.318;2024-01-30T02:57:25;11.53;;;8.60;;
3916;SDS011;1973;50.518;7.318;2024-01-30T02:59:52;10.37;;;8.93;;
3916;SDS011;1973;50.518;7.318;2024-01-30T03:02:18;16.60;;;8.80;;
3916;SDS011;1973;50.518;7.318;2024-01-30T03:04:45;11.37;;;7.77;;
3916;SDS011;1973;50.518;7.318;2024-01-30T03:07:12;9.70;;;8.70;;
3916;SDS011;1973;50.518;7.318;2024-01-30T03:09:40;12.80;;;8.60;;
3916;SDS011;1973;50.518;7.318;2024-01-30T03:12:08;9.40;;;7.50;;
3916;SDS011;1973;50.518;7.318;2024-01-30T03:14:36;12.97;;;9.13;;
3916;SDS011;1973;50.518;7.318;2024-01-30T03:17:03;11.10;;;8.80;;
3916;SDS011;1973;50.518;7.318;2024-01-30T03:19:30;11.20;;;8.83;;
3916;SDS011;1973;50.518;7.318;2024-01-30T03:21:56;11.53;;;8.80;;
3916;SDS011;1973;50.518;7.318;2024-01-30T03:24:23;10.43;;;9.20;;
3916;SDS011;1973;50.518;7.318;2024-01-30T03:26:50;12.43;;;9.00;;
3916;SDS011;1973;50.518;7.318;2024-01-30T03:29:16;10.37;;;8.23;;
3916;SDS011;1973;50.518;7.318;2024-01-30T03:31:43;13.87;;;9.03;;
3916;SDS011;1973;50.518;7.318;2024-01-30T03:34:09;10.87;;;9.03;;
3916;SDS011;1973;50.518;7.318;2024-01-30T03:36:36;11.83;;;9.50;;
3916;SDS011;1973;50.518;7.318;2024-01-30T03:39:03;15.73;;;10.57;;
3916;SDS011;1973;50.518;7.318;2024-01-30T03:41:29;11.57;;;9.00;;
3916;SDS011;1973;50.518;7.318;2024-01-30T03:43:56;13.40;;;9.97;;
3916;SDS011;1973;50.518;7.318;2024-01-30T03:46:22;15.57;;;11.20;;
3916;SDS011;1973;50.518;7.318;2024-01-30T03:48:49;15.70;;;11.50;;
3916;SDS011;1973;50.518;7.318;2024-01-30T03:51:15;15.33;;;12.20;;
3916;SDS011;1973;50.518;7.318;2024-01-30T03:53:43;13.83;;;11.23;;
3916;SDS011;1973;50.518;7.318;2024-01-30T03:56:09;13.10;;;10.00;;
3916;SDS011;1973;50.518;7.318;2024-01-30T03:58:36;13.07;;;10.37;;
3916;SDS011;1973;50.518;7.318;2024-01-30T04:01:02;16.17;;;12.07;;
3916;SDS011;1973;50.518;7.318;2024-01-30T04:03:30;18.40;;;13.27;;
3916;SDS011;1973;50.518;7.318;2024-01-30T04:05:56;15.30;;;11.87;;
3916;SDS011;1973;50.518;7.318;2024-01-30T04:08:23;21.40;;;14.30;;
3916;SDS011;1973;50.518;7.318;2024-01-30T04:10:49;19.27;;;14.80;;
3916;SDS011;1973;50.518;7.318;2024-01-30T04:13:16;19.27;;;15.50;;
3916;SDS011;1973;50.518;7.318;2024-01-30T04:15:43;21.00;;;16.33;;
3916;SDS011;1973;50.518;7.318;2024-01-30T04:18:09;18.00;;;14.83;;
3916;SDS011;1973;50.518;7.318;2024-01-30T04:20:36;15.70;;;13.30;;
3916;SDS011;1973;50.518;7.318;2024-01-30T04:23:02;14.67;;;12.40;;
3916;SDS011;1973;50.518;7.318;2024-01-30T04:25:29;17.03;;;15.07;;
3916;SDS011;1973;50.518;7.318;2024-01-30T04:27:55;19.30;;;15.00;;
3916;SDS011;1973;50.518;7.318;2024-01-30T04:30:23;16.37;;;14.60;;
3916;SDS011;1973;50.518;7.318;2024-01-30T04:32:49;18.97;;;16.87;;
3916;SDS011;1973;50.518;7.318;2024-01-30T04:35:16;19.73;;;16.73;;
3916;SDS011;1973;50.518;7.318;2024-01-30T04:37:43;18.43;;;15.97;;
3916;SDS011;1973;50.518;7.318;2024-01-30T04:40:09;19.07;;;15.60;;
3916;SDS011;1973;50.518;7.318;2024-01-30T04:42:36;19.60;;;17.23;;
3916;SDS011;1973;50.518;7.318;2024-01-30T04:45:03;20.80;;;17.83;;
3916;SDS011;1973;50.518;7.318;2024-01-30T04:47:30;20.70;;;16.73;;
3916;SDS011;1973;50.518;7.318;2024-01-30T04:49:56;13.43;;;11.90;;
3916;SDS011;1973;50.518;7.318;2024-01-30T04:52:23;15.53;;;11.70;;
3916;SDS011;1973;50.518;7.318;2024-01-30T04:54:50;14.33;;;11.47;;
3916;SDS011;1973;50.518;7.318;2024-01-30T04:57:16;16.17;;;12.10;;
3916;SDS011;1973;50.518;7.318;2024-01-30T04:59:43;17.03;;;13.07;;
3916;SDS011;1973;50.518;7.318;2024-01-30T05:02:09;15.50;;;12.63;;
3916;SDS011;1973;50.518;7.318;2024-01-30T05:04:36;20.60;;;15.30;;
3916;SDS011;1973;50.518;7.318;2024-01-30T05:07:03;18.33;;;14.13;;
3916;SDS011;1973;50.518;7.318;2024-01-30T05:09:30;20.00;;;15.07;;
3916;SDS011;1973;50.518;7.318;2024-01-30T05:11:56;16.77;;;12.97;;
3916;SDS011;1973;50.518;7.318;2024-01-30T05:14:23;15.77;;;13.63;;
3916;SDS011;1973;50.518;7.318;2024-01-30T05:16:50;17.00;;;13.70;;
3916;SDS011;1973;50.518;7.318;2024-01-30T05:19:16;17.23;;;13.93;;
3916;SDS011;1973;50.518;7.318;2024-01-30T05:21:43;19.47;;;14.80;;
3916;SDS011;1973;50.518;7.318;2024-01-30T05:24:10;15.97;;;12.87;;
3916;SDS011;1973;50.518;7.318;2024-01-30T05:26:37;15.80;;;13.83;;
3916;SDS011;1973;50.518;7.318;2024-01-30T05:29:04;20.23;;;14.77;;
3916;SDS011;1973;50.518;7.318;2024-01-30T05:31:31;19.70;;;15.23;;
3916;SDS011;1973;50.518;7.318;2024-01-30T05:33:57;18.80;;;14.60;;
3916;SDS011;1973;50.518;7.318;2024-01-30T05:36:24;19.50;;;14.90;;
3916;SDS011;1973;50.518;7.318;2024-01-30T05:38:51;17.87;;;14.07;;
3916;SDS011;1973;50.518;7.318;2024-01-30T05:41:17;17.10;;;13.73;;
3916;SDS011;1973;50.518;7.318;2024-01-30T05:43:44;22.97;;;15.47;;
3916;SDS011;1973;50.518;7.318;2024-01-30T05:46:11;21.67;;;15.67;;
3916;SDS011;1973;50.518;7.318;2024-01-30T05:48:37;17.93;;;14.47;;
3916;SDS011;1973;50.518;7.318;2024-01-30T05:51:04;19.20;;;14.10;;
3916;SDS011;1973;50.518;7.318;2024-01-30T05:53:31;20.50;;;15.67;;
3916;SDS011;1973;50.518;7.318;2024-01-30T05:55:57;19.60;;;15.60;;
3916;SDS011;1973;50.518;7.318;2024-01-30T05:58:24;24.00;;;15.57;;
3916;SDS011;1973;50.518;7.318;2024-01-30T06:00:50;20.33;;;14.97;;
3916;SDS011;1973;50.518;7.318;2024-01-30T06:03:17;17.87;;;13.20;;
3916;SDS011;1973;50.518;7.318;2024-01-30T06:05:43;16.80;;;12.70;;
3916;SDS011;1973;50.518;7.318;2024-01-30T06:08:10;15.37;;;12.77;;
3916;SDS011;1973;50.518;7.318;2024-01-30T06:10:37;20.53;;;13.40;;
3916;SDS011;1973;50.518;7.318;2024-01-30T06:13:03;27.00;;;15.60;;
3916;SDS011;1973;50.518;7.318;2024-01-30T06:15:30;18.47;;;13.97;;
3916;SDS011;1973;50.518;7.318;2024-01-30T06:17:56;16.20;;;12.83;;
3916;SDS011;1973;50.518;7.318;2024-01-30T06:20:23;18.43;;;12.07;;
3916;SDS011;1973;50.518;7.318;2024-01-30T06:22:50;17.00;;;11.33;;
3916;SDS011;1973;50.518;7.318;2024-01-30T06:25:16;14.93;;;11.80;;
3916;SDS011;1973;50.518;7.318;2024-01-30T06:27:43;14.90;;;11.97;;
3916;SDS011;1973;50.518;7.318;2024-01-30T06:30:10;17.93;;;12.37;;
3916;SDS011;1973;50.518;7.318;2024-01-30T06:32:37;19.17;;;15.67;;
3916;SDS011;1973;50.518;7.318;2024-01-30T06:35:04;20.00;;;15.33;;
3916;SDS011;1973;50.518;7.318;2024-01-30T06:37:32;21.37;;;15.73;;
3916;SDS011;1973;50.518;7.318;2024-01-30T06:39:58;19.10;;;14.10;;
3916;SDS011;1973;50.518;7.318;2024-01-30T06:42:25;14.23;;;12.77;;
3916;SDS011;1973;50.518;7.318;2024-01-30T06:44:52;16.70;;;14.40;;
3916;SDS011;1973;50.518;7.318;2024-01-30T06:47:18;19.90;;;14.30;;
3916;SDS011;1973;50.518;7.318;2024-01-30T06:49:45;19.57;;;13.97;;
3916;SDS011;1973;50.518;7.318;2024-01-30T06:52:12;19.57;;;14.80;;
3916;SDS011;1973;50.518;7.318;2024-01-30T06:54:38;18.50;;;13.57;;
3916;SDS011;1973;50.518;7.318;2024-01-30T06:57:06;14.43;;;12.93;;
3916;SDS011;1973;50.518;7.318;2024-01-30T06:59:38;15.47;;;13.47;;
3916;SDS011;1973;50.518;7.318;2024-01-30T07:02:10;20.90;;;14.40;;
3916;SDS011;1973;50.518;7.318;2024-01-30T07:04:37;16.70;;;13.97;;
3916;SDS011;1973;50.518;7.318;2024-01-30T07:07:11;20.40;;;14.77;;
3916;SDS011;1973;50.518;7.318;2024-01-30T07:09:39;20.10;;;16.37;;
3916;SDS011;1973;50.518;7.318;2024-01-30T07:12:06;21.83;;;14.70;;
3916;SDS011;1973;50.518;7.318;2024-01-30T07:14:33;18.63;;;14.43;;
3916;SDS011;1973;50.518;7.318;2024-01-30T07:17:00;16.20;;;13.50;;
3916;SDS011;1973;50.518;7.318;2024-01-30T07:19:26;17.93;;;14.23;;
3916;SDS011;1973;50.518;7.318;2024-01-30T07:21:53;21.97;;;13.17;;
3916;SDS011;1973;50.518;7.318;2024-01-30T07:24:20;17.37;;;13.70;;
3916;SDS011;1973;50.518;7.318;2024-01-30T07:26:46;22.60;;;16.37;;
3916;SDS011;1973;50.518;7.318;2024-01-30T07:29:13;24.00;;;16.57;;
3916;SDS011;1973;50.518;7.318;2024-01-30T07:31:39;24.80;;;16.47;;
3916;SDS011;1973;50.518;7.318;2024-01-30T07:34:06;22.00;;;16.00;;
3916;SDS011;1973;50.518;7.318;2024-01-30T07:36:33;20.00;;;16.17;;
3916;SDS011;1973;50.518;7.318;2024-01-30T07:39:00;17.70;;;15.00;;
3916;SDS011;1973;50.518;7.318;2024-01-30T07:41:26;18.50;;;15.17;;
3916;SDS011;1973;50.518;7.318;2024-01-30T07:43:53;18.00;;;16.00;;
3916;SDS011;1973;50.518;7.318;2024-01-30T07:46:20;18.50;;;14.80;;
3916;SDS011;1973;50.518;7.318;2024-01-30T07:48:46;21.13;;;15.80;;
3916;SDS011;1973;50.518;7.318;2024-01-30T07:51:13;19.97;;;16.33;;
3916;SDS011;1973;50.518;7.318;2024-01-30T07:53:40;18.87;;;15.63;;
3916;SDS011;1973;50.518;7.318;2024-01-30T07:56:07;19.33;;;15.53;;
3916;SDS011;1973;50.518;7.318;2024-01-30T07:58:34;22.23;;;15.70;;
3916;SDS011;1973;50.518;7.318;2024-01-30T08:01:00;24.03;;;15.90;;
3916;SDS011;1973;50.518;7.318;2024-01-30T08:03:27;17.90;;;13.40;;
3916;SDS011;1973;50.518;7.318;2024-01-30T08:05:54;18.40;;;15.03;;
3916;SDS011;1973;50.518;7.318;2024-01-30T08:08:21;22.50;;;15.93;;
3916;SDS011;1973;50.518;7.318;2024-01-30T08:10:48;17.90;;;14.57;;
3916;SDS011;1973;50.518;7.318;2024-01-30T08:13:16;21.47;;;16.80;;
3916;SDS011;1973;50.518;7.318;2024-01-30T08:15:42;20.57;;;15.73;;
3916;SDS011;1973;50.518;7.318;2024-01-30T08:18:09;21.30;;;16.03;;
3916;SDS011;1973;50.518;7.318;2024-01-30T08:20:36;20.57;;;15.30;;
3916;SDS011;1973;50.518;7.318;2024-01-30T08:23:02;19.93;;;15.73;;
3916;SDS011;1973;50.518;7.318;2024-01-30T08:25:29;21.80;;;16.27;;
3916;SDS011;1973;50.518;7.318;2024-01-30T08:27:56;22.43;;;16.93;;
3916;SDS011;1973;50.518;7.318;2024-01-30T08:30:24;18.07;;;16.17;;
3916;SDS011;1973;50.518;7.318;2024-01-30T08:32:50;22.27;;;16.43;;
3916;SDS011;1973;50.518;7.318;2024-01-30T08:35:18;22.07;;;16.37;;
3916;SDS011;1973;50.518;7.318;2024-01-30T08:37:45;22.57;;;15.77;;
3916;SDS011;1973;50.518;7.318;2024-01-30T08:40:11;21.00;;;16.93;;
3916;SDS011;1973;50.518;7.318;2024-01-30T08:42:38;21.80;;;16.80;;
3916;SDS011;1973;50.518;7.318;2024-01-30T08:45:05;21.63;;;16.80;;
3916;SDS011;1973;50.518;7.318;2024-01-30T08:47:32;23.03;;;16.90;;
3916;SDS011;1973;50.518;7.318;2024-01-30T08:49:59;20.30;;;16.03;;
3916;SDS011;1973;50.518;7.318;2024-01-30T08:52:26;22.83;;;16.37;;
3916;SDS011;1973;50.518;7.318;2024-01-30T08:54:53;22.30;;;14.93;;
3916;SDS011;1973;50.518;7.318;2024-01-30T08:57:20;19.27;;;15.97;;
3916;SDS011;1973;50.518;7.318;2024-01-30T08:59:47;20.33;;;15.27;;
3916;SDS011;1973;50.518;7.318;2024-01-30T09:02:14;21.53;;;16.40;;
3916;SDS011;1973;50.518;7.318;2024-01-30T09:04:42;20.97;;;15.20;;
3916;SDS011;1973;50.518;7.318;2024-01-30T09:07:09;21.40;;;15.40;;
3916;SDS011;1973;50.518;7.318;2024-01-30T09:09:37;19.13;;;14.57;;
3916;SDS011;1973;50.518;7.318;2024-01-30T09:12:06;20.40;;;14.60;;
3916;SDS011;1973;50.518;7.318;2024-01-30T09:14:35;19.77;;;15.57;;
3916;SDS011;1973;50.518;7.318;2024-01-30T09:17:03;19.03;;;14.93;;
3916;SDS011;1973;50.518;7.318;2024-01-30T09:19:30;19.33;;;14.40;;
3916;SDS011;1973;50.518;7.318;2024-01-30T09:21:57;22.40;;;16.40;;
3916;SDS011;1973;50.518;7.318;2024-01-30T09:24:24;20.33;;;14.87;;
3916;SDS011;1973;50.518;7.318;2024-01-30T09:26:51;20.20;;;15.87;;
3916;SDS011;1973;50.518;7.318;2024-01-30T09:29:18;19.83;;;15.23;;
3916;SDS011;1973;50.518;7.318;2024-01-30T09:31:45;31.53;;;16.97;;
3916;SDS011;1973;50.518;7.318;2024-01-30T09:34:12;23.03;;;16.23;;
3916;SDS011;1973;50.518;7.318;2024-01-30T09:36:39;18.30;;;13.90;;
3916;SDS011;1973;50.518;7.318;2024-01-30T09:39:06;21.40;;;16.57;;
3916;SDS011;1973;50.518;7.318;2024-01-30T09:41:33;20.47;;;15.20;;
3916;SDS011;1973;50.518;7.318;2024-01-30T09:44:20;25.90;;;19.93;;
3916;SDS011;1973;50.518;7.318;2024-01-30T09:46:47;17.80;;;14.30;;
3916;SDS011;1973;50.518;7.318;2024-01-30T09:49:16;22.00;;;15.70;;
3916;SDS011;1973;50.518;7.318;2024-01-30T09:51:46;20.90;;;15.17;;
3916;SDS011;1973;50.518;7.318;2024-01-30T09:54:14;19.00;;;14.10;;
3916;SDS011;1973;50.518;7.318;2024-01-30T09:56:42;18.13;;;15.33;;
3916;SDS011;1973;50.518;7.318;2024-01-30T09:59:09;15.83;;;13.50;;
3916;SDS011;1973;50.518;7.318;2024-01-30T10:01:35;17.93;;;14.53;;
3916;SDS011;1973;50.518;7.318;2024-01-30T10:04:03;19.60;;;14.00;;
3916;SDS011;1973;50.518;7.318;2024-01-30T10:06:30;15.10;;;13.30;;
3916;SDS011;1973;50.518;7.318;2024-01-30T10:08:57;15.43;;;13.33;;
3916;SDS011;1973;50.518;7.318;2024-01-30T10:11:24;20.67;;;14.33;;
3916;SDS011;1973;50.518;7.318;2024-01-30T10:13:53;17.27;;;12.37;;
3916;SDS011;1973;50.518;7.318;2024-01-30T10:16:20;15.83;;;13.30;;
3916;SDS011;1973;50.518;7.318;2024-01-30T10:18:47;15.27;;;13.67;;
3916;SDS011;1973;50.518;7.318;2024-01-30T10:21:13;16.93;;;13.50;;
3916;SDS011;1973;50.518;7.318;2024-01-30T10:23:40;17.70;;;13.40;;
3916;SDS011;1973;50.518;7.318;2024-01-30T10:26:07;20.67;;;14.80;;
3916;SDS011;1973;50.518;7.318;2024-01-30T10:28:34;17.53;;;14.40;;
3916;SDS011;1973;50.518;7.318;2024-01-30T10:31:00;21.27;;;14.50;;
3916;SDS011;1973;50.518;7.318;2024-01-30T10:33:32;14.23;;;12.70;;
3916;SDS011;1973;50.518;7.318;2024-01-30T10:36:03;24.70;;;14.10;;
3916;SDS011;1973;50.518;7.318;2024-01-30T10:38:31;16.33;;;13.73;;
3916;SDS011;1973;50.518;7.318;2024-01-30T10:40:59;19.03;;;13.97;;
3916;SDS011;1973;50.518;7.318;2024-01-30T10:43:36;16.57;;;13.73;;
3916;SDS011;1973;50.518;7.318;2024-01-30T10:48:41;15.43;;;13.00;;
3916;SDS011;1973;50.518;7.318;2024-01-30T10:51:11;16.00;;;13.97;;
3916;SDS011;1973;50.518;7.318;2024-01-30T10:53:38;17.83;;;14.37;;
3916;SDS011;1973;50.518;7.318;2024-01-30T10:56:05;18.40;;;13.73;;
3916;SDS011;1973;50.518;7.318;2024-01-30T10:58:34;18.17;;;14.63;;
3916;SDS011;1973;50.518;7.318;2024-01-30T11:01:00;18.57;;;13.90;;
3916;SDS011;1973;50.518;7.318;2024-01-30T11:03:28;16.20;;;13.63;;
3916;SDS011;1973;50.518;7.318;2024-01-30T11:05:58;20.10;;;14.60;;
3916;SDS011;1973;50.518;7.318;2024-01-30T11:08:26;15.53;;;12.83;;
3916;SDS011;1973;50.518;7.318;2024-01-30T11:10:58;16.97;;;13.07;;
3916;SDS011;1973;50.518;7.318;2024-01-30T11:13:31;17.47;;;15.27;;
3916;SDS011;1973;50.518;7.318;2024-01-30T11:16:05;17.60;;;13.40;;
3916;SDS011;1973;50.518;7.318;2024-01-30T11:18:32;16.67;;;14.23;;
3916;SDS011;1973;50.518;7.318;2024-01-30T11:21:04;15.10;;;13.20;;
3916;SDS011;1973;50.518;7.318;2024-01-30T11:23:32;18.13;;;13.87;;
3916;SDS011;1973;50.518;7.318;2024-01-30T11:26:00;19.27;;;13.30;;
3916;SDS011;1973;50.518;7.318;2024-01-30T11:28:31;16.03;;;12.90;;
3916;SDS011;1973;50.518;7.318;2024-01-30T11:31:02;13.73;;;12.33;;
3916;SDS011;1973;50.518;7.318;2024-01-30T11:33:33;18.73;;;13.03;;
3916;SDS011;1973;50.518;7.318;2024-01-30T11:36:00;17.63;;;13.43;;
3916;SDS011;1973;50.518;7.318;2024-01-30T11:38:28;19.33;;;13.97;;
3916;SDS011;1973;50.518;7.318;2024-01-30T11:40:55;17.57;;;13.03;;
3916;SDS011;1973;50.518;7.318;2024-01-30T11:43:25;15.03;;;13.10;;
3916;SDS011;1973;50.518;7.318;2024-01-30T11:45:52;16.77;;;14.03;;
3916;SDS011;1973;50.518;7.318;2024-01-30T11:48:19;19.90;;;17.30;;
3916;SDS011;1973;50.518;7.318;2024-01-30T11:50:46;17.33;;;14.20;;
3916;SDS011;1973;50.518;7.318;2024-01-30T11:53:12;20.17;;;15.20;;
3916;SDS011;1973;50.518;7.318;2024-01-30T11:55:39;19.50;;;15.23;;
3916;SDS011;1973;50.518;7.318;2024-01-30T11:58:06;17.20;;;14.70;;
3916;SDS011;1973;50.518;7.318;2024-01-30T12:00:33;20.00;;;14.47;;
3916;SDS011;1973;50.518;7.318;2024-01-30T12:03:01;17.17;;;13.80;;
3916;SDS011;1973;50.518;7.318;2024-01-30T12:05:28;20.17;;;13.33;;
3916;SDS011;1973;50.518;7.318;2024-01-30T12:07:56;13.53;;;11.87;;
3916;SDS011;1973;50.518;7.318;2024-01-30T12:10:26;17.10;;;12.57;;
3916;SDS011;1973;50.518;7.318;2024-01-30T12:12:53;15.03;;;12.17;;
3916;SDS011;1973;50.518;7.318;2024-01-30T12:15:21;16.73;;;14.10;;
3916;SDS011;1973;50.518;7.318;2024-01-30T12:17:48;14.23;;;11.90;;
3916;SDS011;1973;50.518;7.318;2024-01-30T12:20:17;16.10;;;12.43;;
3916;SDS011;1973;50.518;7.318;2024-01-30T12:22:46;15.20;;;10.77;;
3916;SDS011;1973;50.518;7.318;2024-01-30T12:25:15;18.97;;;13.40;;
3916;SDS011;1973;50.518;7.318;2024-01-30T12:27:47;15.00;;;11.70;;
3916;SDS011;1973;50.518;7.318;2024-01-30T12:30:19;14.80;;;12.50;;
3916;SDS011;1973;50.518;7.318;2024-01-30T12:32:49;13.90;;;11.47;;
3916;SDS011;1973;50.518;7.318;2024-01-30T12:35:18;15.30;;;12.67;;
3916;SDS011;1973;50.518;7.318;2024-01-30T12:37:46;14.50;;;11.87;;
3916;SDS011;1973;50.518;7.318;2024-01-30T12:40:14;16.97;;;11.60;;
3916;SDS011;1973;50.518;7.318;2024-01-30T12:42:42;14.90;;;11.00;;
3916;SDS011;1973;50.518;7.318;2024-01-30T12:45:09;12.50;;;10.70;;
3916;SDS011;1973;50.518;7.318;2024-01-30T12:47:36;15.07;;;10.30;;
3916;SDS011;1973;50.518;7.318;2024-01-30T12:50:03;15.23;;;10.97;;
3916;SDS011;1973;50.518;7.318;2024-01-30T12:52:30;13.03;;;9.53;;
3916;SDS011;1973;50.518;7.318;2024-01-30T12:54:57;10.60;;;9.30;;
3916;SDS011;1973;50.518;7.318;2024-01-30T12:57:24;12.23;;;9.30;;
3916;SDS011;1973;50.518;7.318;2024-01-30T12:59:51;12.00;;;10.20;;
3916;SDS011;1973;50.518;7.318;2024-01-30T13:02:17;12.50;;;10.67;;
3916;SDS011;1973;50.518;7.318;2024-01-30T13:04:44;16.33;;;12.13;;
3916;SDS011;1973;50.518;7.318;2024-01-30T13:07:15;12.43;;;9.40;;
3916;SDS011;1973;50.518;7.318;2024-01-30T13:09:42;10.27;;;9.20;;
3916;SDS011;1973;50.518;7.318;2024-01-30T13:12:08;13.50;;;10.10;;
3916;SDS011;1973;50.518;7.318;2024-01-30T13:14:35;13.00;;;11.20;;
3916;SDS011;1973;50.518;7.318;2024-01-30T13:17:04;16.77;;;9.93;;
3916;SDS011;1973;50.518;7.318;2024-01-30T13:19:30;10.87;;;9.77;;
3916;SDS011;1973;50.518;7.318;2024-01-30T13:21:57;12.57;;;9.50;;
3916;SDS011;1973;50.518;7.318;2024-01-30T13:24:24;11.73;;;9.50;;
3916;SDS011;1973;50.518;7.318;2024-01-30T13:26:51;12.73;;;10.20;;
3916;SDS011;1973;50.518;7.318;2024-01-30T13:29:18;11.93;;;8.80;;
3916;SDS011;1973;50.518;7.318;2024-01-30T13:31:45;12.63;;;9.93;;
3916;SDS011;1973;50.518;7.318;2024-01-30T13:34:13;11.67;;;9.30;;
3916;SDS011;1973;50.518;7.318;2024-01-30T13:36:40;11.47;;;8.47;;
3916;SDS011;1973;50.518;7.318;2024-01-30T13:39:07;13.00;;;9.23;;
3916;SDS011;1973;50.518;7.318;2024-01-30T13:41:36;10.10;;;8.70;;
3916;SDS011;1973;50.518;7.318;2024-01-30T13:44:04;12.43;;;9.60;;
3916;SDS011;1973;50.518;7.318;2024-01-30T13:46:30;11.03;;;9.37;;
3916;SDS011;1973;50.518;7.318;2024-01-30T13:48:57;11.20;;;8.37;;
3916;SDS011;1973;50.518;7.318;2024-01-30T13:51:24;11.70;;;8.70;;
3916;SDS011;1973;50.518;7.318;2024-01-30T13:53:51;10.47;;;8.40;;
3916;SDS011;1973;50.518;7.318;2024-01-30T13:56:18;12.13;;;9.37;;
3916;SDS011;1973;50.518;7.318;2024-01-30T13:58:48;10.17;;;9.07;;
3916;SDS011;1973;50.518;7.318;2024-01-30T14:01:16;11.93;;;9.47;;
3916;SDS011;1973;50.518;7.318;2024-01-30T14:03:43;12.23;;;8.37;;
3916;SDS011;1973;50.518;7.318;2024-01-30T14:06:10;8.80;;;7.97;;
3916;SDS011;1973;50.518;7.318;2024-01-30T14:08:37;11.60;;;8.53;;
3916;SDS011;1973;50.518;7.318;2024-01-30T14:11:04;11.53;;;8.97;;
3916;SDS011;1973;50.518;7.318;2024-01-30T14:13:30;13.00;;;10.43;;
3916;SDS011;1973;50.518;7.318;2024-01-30T14:15:59;12.80;;;9.33;;
3916;SDS011;1973;50.518;7.318;2024-01-30T14:18:26;14.43;;;9.60;;
3916;SDS011;1973;50.518;7.318;2024-01-30T14:20:52;10.80;;;8.97;;
3916;SDS011;1973;50.518;7.318;2024-01-30T14:23:19;12.90;;;10.40;;
3916;SDS011;1973;50.518;7.318;2024-01-30T14:25:45;11.73;;;10.53;;
3916;SDS011;1973;50.518;7.318;2024-01-30T14:28:12;10.83;;;9.43;;
3916;SDS011;1973;50.518;7.318;2024-01-30T14:30:38;12.43;;;9.23;;
3916;SDS011;1973;50.518;7.318;2024-01-30T14:33:05;11.73;;;8.40;;
3916;SDS011;1973;50.518;7.318;2024-01-30T14:35:33;11.10;;;9.20;;
3916;SDS011;1973;50.518;7.318;2024-01-30T14:38:00;12.53;;;9.20;;
3916;SDS011;1973;50.518;7.318;2024-01-30T14:40:27;13.43;;;9.43;;
3916;SDS011;1973;50.518;7.318;2024-01-30T14:42:54;18.97;;;9.50;;
3916;SDS011;1973;50.518;7.318;2024-01-30T14:45:21;13.90;;;10.70;;
3916;SDS011;1973;50.518;7.318;2024-01-30T14:47:48;13.20;;;9.70;;
3916;SDS011;1973;50.518;7.318;2024-01-30T14:50:16;11.53;;;10.13;;
3916;SDS011;1973;50.518;7.318;2024-01-30T14:52:43;16.03;;;9.93;;
3916;SDS011;1973;50.518;7.318;2024-01-30T14:55:10;11.70;;;9.70;;